Time;durP1;ratioP1;P1;durP2;ratioP2;P2;SDS_P1;SDS_P2;PMS_P1;PMS_P2;Temp;Humidity;BMP_temperature;BMP_pressure;BME280_temperature;BME280_humidity;BME280_pressure;Samples;Min_cycle;Max_cycle;Signal;HPM_P1;HPM_P2
2022/04/26 03:36:36;;;;;;;22.38;11.35;;;6.80;99.90;;;;;;4972663;28;20050;-65
2022/04/26 03:39:02;;;;;;;22.75;12.25;;;6.90;99.90;;;;;;4972818;28;20039;-65
2022/04/26 03:41:27;;;;;;;18.95;11.40;;;6.90;99.90;;;;;;4972522;28;20035;-66
2022/04/26 03:43:53;;;;;;;28.23;10.45;;;6.90;99.90;;;;;;4972538;28;20047;-66
2022/04/26 03:46:18;;;;;;;20.30;10.35;;;7.00;99.90;;;;;;4976031;28;20147;-66
2022/04/26 03:48:44;;;;;;;22.25;10.13;;;7.00;99.90;;;;;;4976132;28;20464;-66
2022/04/26 03:51:10;;;;;;;15.02;9.23;;;7.00;99.90;;;;;;4976188;28;20444;-68
2022/04/26 03:53:35;;;;;;;21.23;9.52;;;7.10;99.90;;;;;;4976266;28;20501;-66
2022/04/26 03:56:01;;;;;;;22.30;10.10;;;7.10;99.90;;;;;;4977521;28;20034;-70
2022/04/26 03:58:26;;;;;;;23.80;8.98;;;7.20;99.90;;;;;;4993677;28;20038;-67
2022/04/26 04:00:53;;;;;;;17.33;8.75;;;7.20;99.90;;;;;;4994965;28;20073;-67
2022/04/26 04:03:19;;;;;;;19.00;7.82;;;7.20;99.90;;;;;;4994016;28;20136;-67
2022/04/26 04:05:44;;;;;;;18.20;8.43;;;7.20;99.90;;;;;;4995502;28;20564;-67
2022/04/26 04:08:10;;;;;;;17.90;7.53;;;7.30;99.90;;;;;;4995132;28;20084;-67
2022/04/26 04:10:35;;;;;;;13.90;7.60;;;7.30;99.90;;;;;;4995190;28;20101;-70
2022/04/26 04:13:01;;;;;;;18.95;7.85;;;7.40;99.90;;;;;;4995360;28;20515;-67
2022/04/26 04:15:27;;;;;;;16.33;7.47;;;7.40;99.90;;;;;;4995296;28;20038;-67
2022/04/26 04:17:52;;;;;;;15.52;8.15;;;7.40;99.90;;;;;;4995065;28;20180;-67
2022/04/26 04:20:18;;;;;;;16.73;8.48;;;7.40;99.90;;;;;;4994696;28;20050;-67
2022/04/26 04:22:43;;;;;;;16.20;7.50;;;7.40;99.90;;;;;;4995218;28;20035;-67
2022/04/26 04:25:09;;;;;;;17.15;6.65;;;7.40;99.90;;;;;;4995105;28;20489;-67
2022/04/26 04:27:35;;;;;;;20.35;8.25;;;7.50;99.90;;;;;;4994523;28;20133;-67
2022/04/26 04:30:02;;;;;;;11.60;6.40;;;7.40;99.90;;;;;;4994639;28;20451;-67
2022/04/26 04:32:31;;;;;;;15.10;7.47;;;7.50;99.90;;;;;;4994800;28;20034;-67
2022/04/26 04:34:57;;;;;;;14.73;6.78;;;7.50;99.90;;;;;;4995109;28;20040;-67
2022/04/26 04:37:22;;;;;;;14.82;6.50;;;7.50;99.90;;;;;;4994767;28;20054;-67
2022/04/26 04:39:51;;;;;;;11.77;6.40;;;7.50;99.90;;;;;;4994808;28;20078;-70
2022/04/26 04:42:17;;;;;;;16.42;5.82;;;7.50;99.90;;;;;;4994668;28;20038;-70
2022/04/26 04:44:43;;;;;;;17.08;6.45;;;7.50;99.90;;;;;;4994818;28;20046;-69
2022/04/26 04:47:09;;;;;;;12.95;6.25;;;7.50;99.90;;;;;;4994587;28;20061;-69
2022/04/26 04:49:34;;;;;;;17.80;6.13;;;7.50;99.90;;;;;;4994858;28;20500;-67
2022/04/26 04:52:00;;;;;;;19.83;6.75;;;7.60;99.90;;;;;;4994322;28;20038;-67
2022/04/26 04:54:29;;;;;;;17.63;7.03;;;7.60;99.90;;;;;;4994773;28;20407;-67
2022/04/26 04:56:54;;;;;;;12.82;6.60;;;7.60;99.90;;;;;;4994253;28;20050;-67
2022/04/26 04:59:20;;;;;;;15.35;6.13;;;7.70;99.90;;;;;;4994330;28;20035;-67
2022/04/26 05:01:45;;;;;;;12.88;5.30;;;7.60;99.90;;;;;;4994065;28;20044;-67
2022/04/26 05:04:11;;;;;;;15.82;5.95;;;7.70;99.90;;;;;;4994531;28;20042;-66
2022/04/26 05:06:36;;;;;;;14.45;6.07;;;7.70;99.90;;;;;;4994291;28;20042;-67
2022/04/26 05:09:02;;;;;;;16.23;6.15;;;7.70;99.90;;;;;;4994389;28;20113;-67
2022/04/26 05:11:27;;;;;;;15.25;5.72;;;7.70;99.90;;;;;;4994073;28;20150;-67
2022/04/26 05:13:53;;;;;;;18.92;5.47;;;7.80;99.90;;;;;;4993924;28;20634;-67
2022/04/26 05:16:18;;;;;;;11.63;5.90;;;7.80;99.90;;;;;;4993819;28;20047;-67
2022/04/26 05:18:44;;;;;;;15.68;6.28;;;8.00;99.90;;;;;;4992786;28;20069;-67
2022/04/26 05:21:13;;;;;;;16.23;5.75;;;8.10;99.90;;;;;;4993671;28;20085;-69
2022/04/26 05:26:23;;;;;;;16.17;7.03;;;7.90;99.90;;;;;;5007152;28;20120;-67
2022/04/26 05:28:49;;;;;;;10.55;6.00;;;8.00;99.90;;;;;;5013276;28;20583;-67
2022/04/26 05:31:14;;;;;;;13.55;6.05;;;8.20;99.90;;;;;;5013253;28;20040;-67
2022/04/26 05:33:40;;;;;;;12.05;5.85;;;8.40;99.90;;;;;;5013387;28;20034;-67
2022/04/26 05:36:06;;;;;;;13.55;6.10;;;8.60;99.90;;;;;;5013193;28;20077;-67
2022/04/26 05:38:31;;;;;;;13.70;5.50;;;8.70;99.90;;;;;;5012913;28;20046;-67
2022/04/26 05:40:57;;;;;;;9.68;5.03;;;8.80;99.90;;;;;;5012382;28;20037;-66
2022/04/26 05:43:23;;;;;;;10.40;5.03;;;8.90;99.90;;;;;;5002406;28;20419;-66
2022/04/26 05:45:49;;;;;;;13.70;5.32;;;9.10;99.90;;;;;;4994774;28;20077;-67
2022/04/26 05:48:14;;;;;;;9.95;5.20;;;9.20;99.90;;;;;;4992176;28;20063;-67
2022/04/26 05:50:41;;;;;;;11.63;6.13;;;9.40;99.90;;;;;;4993011;28;20069;-68
2022/04/26 05:53:07;;;;;;;11.68;5.30;;;9.40;99.90;;;;;;4993465;28;20096;-67
2022/04/26 05:55:32;;;;;;;14.35;5.45;;;9.50;99.90;;;;;;4993320;28;20042;-67
2022/04/26 05:57:58;;;;;;;14.57;5.45;;;9.70;99.90;;;;;;4993210;28;20045;-67
2022/04/26 06:00:24;;;;;;;12.10;5.97;;;9.90;99.90;;;;;;4993170;28;20041;-67
2022/04/26 06:02:49;;;;;;;11.70;5.28;;;9.90;99.90;;;;;;4993318;28;20031;-67
2022/04/26 06:05:15;;;;;;;14.55;5.47;;;9.80;99.90;;;;;;4991801;28;20065;-67
2022/04/26 06:07:41;;;;;;;9.82;5.30;;;9.90;99.90;;;;;;4992351;28;20095;-67
2022/04/26 06:10:07;;;;;;;15.55;5.60;;;10.30;99.90;;;;;;4992750;28;20034;-67
2022/04/26 06:12:34;;;;;;;11.52;4.95;;;10.70;99.90;;;;;;4991648;28;20548;-67
2022/04/26 06:15:00;;;;;;;6.80;4.75;;;10.60;99.90;;;;;;4993145;28;20056;-67
2022/04/26 06:17:27;;;;;;;12.57;5.40;;;10.70;99.90;;;;;;4993000;28;20125;-68
2022/04/26 06:19:52;;;;;;;10.82;5.63;;;10.50;99.90;;;;;;4992571;28;20046;-67
2022/04/26 06:22:18;;;;;;;13.88;5.50;;;10.20;99.90;;;;;;4992637;28;20396;-68
2022/04/26 06:24:44;;;;;;;11.65;5.07;;;9.90;99.90;;;;;;4990977;28;20101;-68
2022/04/26 06:27:10;;;;;;;15.45;5.20;;;9.80;99.90;;;;;;5005031;28;20081;-67
2022/04/26 06:29:35;;;;;;;15.77;5.60;;;9.60;99.90;;;;;;5003621;28;20042;-67
2022/04/26 06:32:02;;;;;;;11.38;4.78;;;9.70;99.90;;;;;;4999348;28;20068;-67
2022/04/26 06:34:28;;;;;;;11.25;4.70;;;10.10;99.90;;;;;;4994487;28;20570;-67
2022/04/26 06:36:53;;;;;;;8.85;5.15;;;10.00;99.90;;;;;;4992034;28;20050;-68
2022/04/26 06:39:19;;;;;;;10.43;5.13;;;10.50;99.90;;;;;;4991929;28;20045;-68
2022/04/26 06:41:46;;;;;;;13.25;5.15;;;10.80;99.90;;;;;;4991639;28;20038;-67
2022/04/26 06:44:11;;;;;;;11.38;4.95;;;10.90;99.90;;;;;;4992155;28;20030;-67
2022/04/26 06:46:37;;;;;;;12.73;5.18;;;11.10;99.90;;;;;;4992091;28;20500;-67
2022/04/26 06:49:05;;;;;;;13.38;4.90;;;11.10;99.90;;;;;;4991169;28;20058;-68
2022/04/26 06:51:38;;;;;;;14.23;4.90;;;11.20;99.90;;;;;;4995012;28;20033;-67
2022/04/26 06:54:04;;;;;;;13.35;4.50;;;11.30;99.90;;;;;;5011533;28;20530;-67
2022/04/26 06:56:30;;;;;;;10.00;3.45;;;11.10;99.90;;;;;;5001181;28;20084;-67
2022/04/26 06:58:55;;;;;;;9.77;3.90;;;10.60;99.90;;;;;;5007349;28;20080;-67
2022/04/26 07:01:21;;;;;;;9.50;3.75;;;10.30;99.90;;;;;;5011832;28;20038;-67
2022/04/26 07:03:47;;;;;;;10.70;3.20;;;9.90;99.90;;;;;;5012002;28;20030;-67
2022/04/26 07:06:13;;;;;;;10.80;3.33;;;9.70;99.90;;;;;;5011821;28;20570;-68
2022/04/26 07:08:38;;;;;;;9.90;3.22;;;9.70;99.90;;;;;;5011927;28;20030;-68
2022/04/26 07:11:04;;;;;;;8.45;3.30;;;10.10;99.90;;;;;;5011536;28;20050;-67
2022/04/26 07:13:29;;;;;;;9.32;3.33;;;10.30;99.90;;;;;;5011952;28;20125;-67
2022/04/26 07:15:55;;;;;;;10.15;3.20;;;10.20;99.90;;;;;;4997726;28;20415;-68
2022/04/26 07:18:21;;;;;;;8.50;3.50;;;10.20;99.90;;;;;;4991363;28;20624;-68
2022/04/26 07:20:46;;;;;;;8.50;2.92;;;9.90;99.90;;;;;;4995945;28;20412;-68
2022/04/26 07:23:12;;;;;;;12.35;4.07;;;9.90;99.90;;;;;;5002671;28;20034;-68
2022/04/26 07:25:39;;;;;;;14.85;5.18;;;9.90;99.90;;;;;;5010552;28;20053;-68
2022/04/26 07:28:05;;;;;;;9.82;3.70;;;9.60;99.90;;;;;;5015770;28;20045;-67
2022/04/26 07:30:34;;;;;;;9.25;3.25;;;9.60;99.90;;;;;;5014243;28;20050;-68
2022/04/26 07:35:49;;;;;;;9.18;4.38;;;9.60;99.90;;;;;;5006318;28;20042;-68
2022/04/26 07:38:14;;;;;;;9.73;2.90;;;9.80;99.90;;;;;;5003466;28;20075;-67
2022/04/26 07:40:41;;;;;;;7.07;2.83;;;9.90;99.90;;;;;;5006871;28;20052;-68
2022/04/26 07:43:06;;;;;;;6.72;3.45;;;9.80;99.90;;;;;;5009384;28;20050;-68
2022/04/26 07:45:32;;;;;;;5.15;2.90;;;10.20;99.90;;;;;;5009847;28;20049;-68
2022/04/26 07:47:59;;;;;;;8.25;3.50;;;10.40;99.90;;;;;;5011319;28;20483;-68
2022/04/26 07:50:25;;;;;;;12.18;3.50;;;10.70;99.90;;;;;;5013632;28;20167;-68
2022/04/26 07:52:50;;;;;;;8.23;2.72;;;11.00;99.90;;;;;;5014280;28;20514;-68
2022/04/26 07:55:16;;;;;;;7.95;2.95;;;11.40;99.90;;;;;;5012005;28;20049;-68
2022/04/26 07:57:41;;;;;;;8.75;3.53;;;11.30;99.90;;;;;;4996447;28;20440;-68
2022/04/26 08:00:08;;;;;;;7.57;2.90;;;11.60;98.20;;;;;;4997216;28;20116;-68
2022/04/26 08:02:35;;;;;;;7.05;2.60;;;11.80;97.60;;;;;;5006602;28;20429;-68
2022/04/26 08:05:01;;;;;;;7.55;2.63;;;11.70;96.60;;;;;;5005696;28;20598;-68
2022/04/26 08:07:30;;;;;;;5.63;2.75;;;12.20;95.00;;;;;;4995479;28;20049;-69
2022/04/26 08:09:56;;;;;;;10.60;3.00;;;12.30;94.70;;;;;;4997655;28;20123;-68
2022/04/26 08:12:22;;;;;;;15.35;3.70;;;12.70;96.00;;;;;;4998403;28;20085;-68
2022/04/26 08:14:47;;;;;;;7.85;3.60;;;12.60;95.50;;;;;;5012591;28;20053;-68
2022/04/26 08:17:15;;;;;;;10.93;3.42;;;11.90;96.20;;;;;;5014664;28;20060;-68
2022/04/26 08:19:41;;;;;;;6.65;3.08;;;11.10;97.90;;;;;;5014119;28;20519;-68
2022/04/26 08:22:07;;;;;;;6.85;2.95;;;10.90;98.40;;;;;;5004897;28;20037;-68
2022/04/26 08:27:23;;;;;;;10.85;3.00;;;11.00;99.80;;;;;;5009809;28;20408;-68
2022/04/26 08:29:49;;;;;;;9.55;4.00;;;11.40;97.30;;;;;;5014238;28;20492;-68
2022/04/26 08:32:14;;;;;;;5.32;2.60;;;11.70;97.70;;;;;;5013875;28;20042;-68
2022/04/26 08:34:41;;;;;;;9.95;3.63;;;11.40;94.60;;;;;;5014534;28;20045;-68
2022/04/26 08:37:08;;;;;;;7.03;2.58;;;11.20;94.90;;;;;;5014405;28;20045;-68
2022/04/26 08:39:34;;;;;;;7.53;3.03;;;11.70;95.50;;;;;;5014265;28;20511;-68
2022/04/26 08:42:02;;;;;;;9.55;3.03;;;12.00;94.10;;;;;;5012855;28;20080;-68
2022/04/26 08:44:29;;;;;;;7.55;2.75;;;12.40;92.50;;;;;;5008094;28;20038;-68
2022/04/26 08:52:26;;;;;;;4.55;3.33;;;12.90;78.80;;;;;;5002308;28;20046;-68
2022/04/26 08:54:51;;;;;;;9.10;2.53;;;12.80;82.30;;;;;;5001150;28;20498;-68
2022/04/26 08:57:17;;;;;;;5.25;2.95;;;12.60;84.40;;;;;;5004531;28;20038;-68
2022/04/26 09:00:02;;;;;;;4.53;2.25;;;12.20;85.10;;;;;;5007255;28;20092;-69
2022/04/26 09:02:27;;;;;;;5.15;2.42;;;12.10;78.00;;;;;;5012668;28;20558;-68
2022/04/26 09:05:00;;;;;;;7.43;2.70;;;11.90;83.60;;;;;;5014074;28;20038;-68
2022/04/26 09:07:33;;;;;;;10.60;2.80;;;12.50;80.50;;;;;;5012506;28;20042;-68
2022/04/26 09:10:12;;;;;;;7.05;3.10;;;13.00;77.40;;;;;;4995844;28;20129;-68
2022/04/26 09:13:04;;;;;;;7.55;2.90;;;13.00;79.10;;;;;;5013817;28;20085;-68
2022/04/26 09:15:36;;;;;;;8.25;2.97;;;12.40;75.30;;;;;;5013739;28;20054;-68
2022/04/26 09:18:13;;;;;;;5.20;2.70;;;12.20;78.60;;;;;;5012347;28;20073;-68
2022/04/26 09:20:39;;;;;;;5.35;2.70;;;12.60;77.60;;;;;;4994763;28;20038;-69
2022/04/26 09:23:17;;;;;;;6.60;2.50;;;11.70;77.90;;;;;;4991893;28;20041;-69
2022/04/26 09:25:43;;;;;;;6.43;2.92;;;11.60;79.20;;;;;;4993821;28;20042;-69
2022/04/26 09:28:18;;;;;;;7.10;2.78;;;11.80;82.10;;;;;;4992525;28;20046;-68
2022/04/26 09:30:43;;;;;;;5.63;2.75;;;12.40;79.90;;;;;;4993395;28;20050;-69
2022/04/26 09:33:09;;;;;;;6.72;3.90;;;12.30;78.30;;;;;;4993820;28;20049;-68
2022/04/26 09:35:35;;;;;;;7.63;3.67;;;12.20;78.40;;;;;;4993835;28;20049;-69
2022/04/26 09:38:00;;;;;;;8.52;3.08;;;12.00;79.40;;;;;;4993370;28;20049;-69
2022/04/26 09:40:35;;;;;;;5.57;3.10;;;12.00;79.10;;;;;;4993067;28;20038;-69
2022/04/26 09:43:01;;;;;;;6.47;2.55;;;11.80;76.80;;;;;;4992352;28;20042;-69
2022/04/26 09:45:26;;;;;;;9.70;3.28;;;12.00;77.70;;;;;;4993511;28;20073;-69
2022/04/26 09:47:57;;;;;;;7.15;3.55;;;12.40;75.20;;;;;;4993363;28;20566;-69
2022/04/26 09:50:24;;;;;;;7.22;3.40;;;12.30;74.10;;;;;;4991819;28;20092;-69
2022/04/26 09:52:50;;;;;;;9.75;2.85;;;12.20;75.40;;;;;;4993264;28;20096;-69
2022/04/26 09:55:15;;;;;;;7.35;3.42;;;12.00;75.10;;;;;;4991840;28;20451;-69
2022/04/26 09:57:43;;;;;;;7.70;2.97;;;12.10;76.10;;;;;;4991856;28;20046;-68
2022/04/26 10:00:10;;;;;;;4.22;2.13;;;11.90;74.70;;;;;;4991322;28;20088;-68
2022/04/26 10:02:38;;;;;;;6.78;2.70;;;12.00;75.80;;;;;;4991878;28;20042;-68
2022/04/26 10:05:06;;;;;;;5.35;3.13;;;12.50;76.60;;;;;;4992919;28;20100;-69
2022/04/26 10:07:36;;;;;;;6.38;3.05;;;12.30;74.40;;;;;;5002313;28;20038;-69
2022/04/26 10:10:03;;;;;;;11.50;2.80;;;12.60;74.80;;;;;;4998930;28;20038;-69
2022/04/26 10:12:31;;;;;;;8.32;3.63;;;12.60;74.40;;;;;;5001047;28;20117;-69
2022/04/26 10:14:58;;;;;;;5.45;2.88;;;12.50;74.30;;;;;;5001306;28;20050;-69
2022/04/26 10:17:24;;;;;;;8.52;3.65;;;12.30;73.30;;;;;;4991674;28;20121;-69
2022/04/26 10:19:50;;;;;;;6.63;2.97;;;12.30;73.40;;;;;;4991163;28;20172;-69
2022/04/26 10:22:17;;;;;;;8.10;2.83;;;12.10;72.40;;;;;;4996472;28;20053;-69
2022/04/26 10:25:09;;;;;;;4.28;2.65;;;12.00;72.20;;;;;;4999643;28;20042;-69
2022/04/26 10:27:35;;;;;;;5.97;2.85;;;12.20;70.10;;;;;;4999157;28;20042;-69
2022/04/26 10:30:00;;;;;;;7.05;3.20;;;12.50;70.90;;;;;;4991088;28;20050;-69
2022/04/26 10:32:29;;;;;;;7.10;3.17;;;12.70;70.70;;;;;;4992455;28;20038;-69
2022/04/26 10:34:55;;;;;;;11.30;3.40;;;12.90;70.80;;;;;;5000678;28;20033;-69
2022/04/26 10:37:21;;;;;;;5.93;2.90;;;12.30;70.30;;;;;;4991134;28;20057;-69
2022/04/26 10:39:59;;;;;;;6.85;3.03;;;12.10;70.90;;;;;;4991101;28;20078;-69
2022/04/26 10:42:27;;;;;;;7.10;3.00;;;12.10;70.80;;;;;;4994743;28;20500;-69
2022/04/26 10:44:58;;;;;;;9.68;3.38;;;12.40;71.60;;;;;;4992300;28;20034;-69
2022/04/26 10:47:25;;;;;;;7.97;3.67;;;12.70;71.10;;;;;;4992316;28;20050;-69
2022/04/26 10:49:53;;;;;;;6.45;3.40;;;12.50;70.10;;;;;;4986124;28;20141;-69
2022/04/26 10:52:19;;;;;;;9.30;4.22;;;12.30;70.60;;;;;;5005816;28;20053;-69
2022/04/26 10:54:58;;;;;;;7.32;3.47;;;12.50;74.20;;;;;;4994823;28;20104;-69
2022/04/26 10:57:28;;;;;;;9.05;3.10;;;12.30;72.90;;;;;;4992318;28;20501;-70
2022/04/26 11:00:26;;;;;;;8.38;3.75;;;12.30;71.20;;;;;;4999121;28;20577;-69
2022/04/26 11:02:51;;;;;;;5.75;3.53;;;12.70;71.40;;;;;;4993245;28;20042;-69
2022/04/26 11:05:25;;;;;;;7.18;3.45;;;12.50;72.10;;;;;;4992100;28;20069;-69
2022/04/26 11:07:52;;;;;;;4.50;3.58;;;12.50;71.00;;;;;;4974470;28;20131;-69
2022/04/26 11:10:22;;;;;;;5.13;3.08;;;12.60;70.70;;;;;;4991751;28;20038;-69
2022/04/26 11:12:50;;;;;;;4.25;3.05;;;12.90;69.40;;;;;;4991984;28;20140;-70
2022/04/26 11:15:19;;;;;;;6.45;3.45;;;13.10;69.20;;;;;;4990541;28;20146;-70
2022/04/26 11:17:45;;;;;;;10.80;3.83;;;12.70;69.10;;;;;;4991664;28;20047;-70
2022/04/26 11:20:19;;;;;;;6.10;3.70;;;12.60;68.90;;;;;;4991596;28;20034;-69
2022/04/26 11:22:47;;;;;;;7.78;3.28;;;12.80;69.20;;;;;;4992035;28;20045;-70
2022/04/26 11:28:06;;;;;;;11.35;3.60;;;12.70;69.60;;;;;;4990468;28;20508;-69
2022/04/26 11:30:42;;;;;;;5.40;3.28;;;12.70;70.40;;;;;;4991575;28;20121;-70
2022/04/26 11:33:12;;;;;;;5.97;3.22;;;12.80;69.40;;;;;;4990650;28;20035;-69
2022/04/26 11:35:39;;;;;;;5.88;3.00;;;12.60;67.50;;;;;;4990515;28;20500;-69
2022/04/26 11:38:08;;;;;;;7.45;3.63;;;12.40;66.80;;;;;;4991665;28;20045;-69
2022/04/26 11:40:41;;;;;;;5.47;3.05;;;12.60;68.00;;;;;;4995795;28;20074;-69
2022/04/26 11:43:12;;;;;;;3.83;2.63;;;12.90;69.30;;;;;;4994358;28;20443;-69
2022/04/26 11:45:39;;;;;;;4.78;2.90;;;13.00;68.30;;;;;;4990272;28;20039;-69
2022/04/26 11:48:08;;;;;;;6.25;2.83;;;12.70;67.40;;;;;;4996258;28;20042;-69
2022/04/26 11:50:34;;;;;;;7.32;2.95;;;12.90;66.80;;;;;;4995216;28;20089;-69
2022/04/26 11:53:00;;;;;;;7.35;3.33;;;12.90;66.30;;;;;;4996386;28;20073;-70
2022/04/26 11:55:27;;;;;;;6.45;2.83;;;12.80;66.10;;;;;;4999962;28;20038;-69
2022/04/26 11:58:05;;;;;;;10.18;3.22;;;13.00;65.80;;;;;;4994017;28;20039;-70
2022/04/26 12:00:30;;;;;;;7.88;3.47;;;13.10;66.30;;;;;;4995964;28;20560;-70
2022/04/26 12:02:56;;;;;;;6.68;2.90;;;13.20;67.10;;;;;;4997545;28;20125;-70
2022/04/26 12:05:22;;;;;;;8.40;2.63;;;13.30;65.50;;;;;;4991904;28;20129;-69
2022/04/26 12:07:49;;;;;;;7.53;2.55;;;13.20;64.70;;;;;;4994536;28;20035;-70
2022/04/26 12:10:33;;;;;;;6.18;3.20;;;12.80;63.50;;;;;;4994136;28;20053;-70
2022/04/26 12:13:05;;;;;;;5.50;3.17;;;12.70;63.00;;;;;;4993719;28;20108;-70
2022/04/26 12:15:40;;;;;;;3.88;2.33;;;12.60;64.10;;;;;;4994665;28;20539;-69
2022/04/26 12:18:14;;;;;;;5.28;2.88;;;12.70;64.00;;;;;;4994802;28;20065;-69
2022/04/26 12:21:02;;;;;;;5.45;2.55;;;12.90;65.10;;;;;;4980241;28;20082;-69
2022/04/26 12:23:29;;;;;;;7.05;2.72;;;13.10;63.50;;;;;;4990932;28;20400;-69
2022/04/26 12:25:57;;;;;;;7.32;2.90;;;13.10;62.50;;;;;;4994608;28;20038;-69
2022/04/26 12:28:22;;;;;;;6.18;2.63;;;13.00;62.00;;;;;;4993701;28;20097;-69
2022/04/26 12:30:48;;;;;;;7.68;3.15;;;12.90;62.40;;;;;;4994556;28;20497;-69
2022/04/26 12:33:31;;;;;;;6.95;2.60;;;13.00;63.40;;;;;;4994803;28;20448;-69
2022/04/26 12:36:02;;;;;;;;;;;13.20;62.90;;;;;;4994415;28;20165;-69
2022/04/26 12:38:28;;;;;;;5.95;2.53;;;12.90;62.10;;;;;;5002534;28;19925;-69
2022/04/26 12:41:01;;;;;;;3.88;2.35;;;12.90;62.30;;;;;;5002926;28;20038;-69
2022/04/26 12:43:28;;;;;;;5.32;2.33;;;12.90;61.20;;;;;;4991208;28;20042;-69
2022/04/26 12:46:03;;;;;;;5.70;2.78;;;12.90;62.80;;;;;;4994568;28;20052;-69
2022/04/26 12:51:25;;;;;;;4.15;2.35;;;12.90;63.60;;;;;;4988656;28;20054;-69
2022/04/26 12:54:15;;;;;;;7.35;2.72;;;13.00;63.50;;;;;;4994532;28;20047;-69
2022/04/26 12:56:58;;;;;;;4.47;2.08;;;12.80;60.80;;;;;;4994193;28;20053;-69
2022/04/26 12:59:24;;;;;;;8.77;2.63;;;12.70;60.80;;;;;;4999474;28;20144;-69
2022/04/26 13:01:49;;;;;;;6.53;2.92;;;12.60;61.40;;;;;;5002854;28;20046;-69
2022/04/26 13:04:15;;;;;;;3.42;2.33;;;12.60;61.90;;;;;;5002137;28;20084;-69
2022/04/26 13:06:43;;;;;;;6.65;2.83;;;12.70;61.40;;;;;;5002066;28;20069;-69
2022/04/26 13:09:09;;;;;;;6.60;2.78;;;12.80;61.40;;;;;;5005158;28;20030;-69
2022/04/26 13:11:34;;;;;;;5.03;2.30;;;13.00;62.90;;;;;;4994653;28;20038;-70
2022/04/26 13:14:00;;;;;;;5.30;2.63;;;13.10;62.00;;;;;;4992675;28;20102;-72
2022/04/26 13:16:26;;;;;;;5.50;2.63;;;13.30;61.50;;;;;;4997559;28;20447;-70
2022/04/26 13:18:51;;;;;;;5.07;2.83;;;13.10;60.80;;;;;;5003006;28;20027;-69
2022/04/26 13:21:17;;;;;;;4.05;2.20;;;13.40;63.40;;;;;;5001967;28;20105;-70
2022/04/26 13:23:43;;;;;;;3.75;2.40;;;13.60;62.80;;;;;;4998174;28;20528;-70
2022/04/26 13:26:09;;;;;;;4.88;2.60;;;13.80;62.90;;;;;;4999917;28;20416;-70
2022/04/26 13:28:35;;;;;;;5.07;2.33;;;14.10;62.60;;;;;;4999458;28;20030;-70
2022/04/26 13:31:00;;;;;;;5.20;3.25;;;14.30;61.50;;;;;;5000314;28;20078;-70
2022/04/26 13:33:26;;;;;;;7.00;2.50;;;14.10;60.60;;;;;;4984933;28;20041;-70
2022/04/26 13:35:51;;;;;;;4.82;2.90;;;14.30;61.20;;;;;;4997276;28;20065;-69
2022/04/26 13:38:17;;;;;;;5.85;2.88;;;14.30;59.60;;;;;;4999173;28;20088;-70
2022/04/26 13:40:43;;;;;;;4.22;2.75;;;14.30;60.60;;;;;;5001424;28;20080;-70
2022/04/26 13:43:09;;;;;;;7.57;2.58;;;14.20;59.20;;;;;;4993233;28;20492;-70
2022/04/26 13:45:35;;;;;;;8.65;2.47;;;14.00;58.80;;;;;;4993270;28;20041;-70
2022/04/26 13:48:08;;;;;;;5.05;2.22;;;14.00;60.30;;;;;;4993369;28;20034;-70
2022/04/26 13:50:34;;;;;;;6.93;3.03;;;14.30;60.50;;;;;;5002202;28;20527;-70
2022/04/26 13:52:59;;;;;;;5.55;2.60;;;14.30;60.10;;;;;;4995498;28;20125;-70
2022/04/26 13:55:26;;;;;;;5.60;2.67;;;13.80;59.50;;;;;;5000443;28;20042;-69
2022/04/26 13:57:54;;;;;;;4.55;2.88;;;14.20;61.80;;;;;;4998224;28;20077;-70
2022/04/26 14:00:20;;;;;;;5.60;2.60;;;13.60;59.80;;;;;;4986647;28;20057;-69
2022/04/26 14:02:48;;;;;;;6.13;2.63;;;13.80;61.00;;;;;;4997236;28;20049;-70
2022/04/26 14:05:17;;;;;;;7.93;2.75;;;13.20;61.00;;;;;;4997969;28;20038;-69
2022/04/26 14:07:46;;;;;;;5.97;2.83;;;13.40;62.90;;;;;;4996282;28;20038;-69
2022/04/26 14:10:12;;;;;;;5.82;2.97;;;13.70;62.60;;;;;;4991534;28;20046;-69
2022/04/26 14:12:38;;;;;;;4.20;3.08;;;13.50;62.20;;;;;;4993054;28;20062;-69
2022/04/26 14:23:29;;;;;;;4.00;2.50;;;12.50;64.10;;;;;;5000668;28;20555;-70
2022/04/26 14:25:54;;;;;;;5.93;2.95;;;12.30;64.10;;;;;;5003607;28;20129;-69
2022/04/26 14:28:20;;;;;;;9.07;3.40;;;12.20;65.50;;;;;;4982502;28;20415;-69
2022/04/26 14:30:46;;;;;;;6.45;2.97;;;12.30;66.10;;;;;;4998560;28;20048;-70
2022/04/26 14:33:13;;;;;;;7.28;2.65;;;12.20;65.40;;;;;;5000585;28;20084;-70
2022/04/26 14:35:39;;;;;;;6.43;3.10;;;12.10;65.30;;;;;;4999262;28;20046;-70
2022/04/26 14:38:06;;;;;;;5.30;3.30;;;12.20;66.80;;;;;;5000546;28;20068;-70
2022/04/26 14:40:32;;;;;;;6.38;3.00;;;12.70;67.50;;;;;;5000534;28;20038;-69
2022/04/26 14:42:58;;;;;;;5.43;3.05;;;12.50;65.90;;;;;;4999628;28;20109;-70
2022/04/26 14:45:23;;;;;;;3.97;2.63;;;12.80;67.30;;;;;;5000377;28;20116;-69
2022/04/26 14:47:49;;;;;;;4.75;2.70;;;12.70;66.70;;;;;;5000225;28;20030;-70
2022/04/26 14:50:17;;;;;;;7.40;3.65;;;13.00;66.10;;;;;;5000891;28;20137;-70
2022/04/26 14:52:42;;;;;;;7.68;3.13;;;12.80;64.70;;;;;;4999203;28;20064;-70
2022/04/26 14:55:10;;;;;;;5.50;3.33;;;12.80;65.00;;;;;;4998510;28;20684;-69
2022/04/26 14:57:36;;;;;;;10.48;3.92;;;12.90;65.00;;;;;;5000660;28;20511;-69
2022/04/26 15:00:06;;;;;;;4.78;2.55;;;12.80;65.30;;;;;;4991590;28;20073;-69
2022/04/26 15:02:38;;;;;;;6.00;3.15;;;13.00;66.30;;;;;;4990523;28;20468;-69
2022/04/26 15:05:07;;;;;;;4.95;2.70;;;13.20;65.90;;;;;;4992195;28;20104;-69
2022/04/26 15:09:42;;;;;;;4.25;2.60;;;12.70;65.10;;;;;;4991975;28;20121;-69
2022/04/26 15:10:19;;;;;;;5.20;2.53;;;13.00;66.30;;;;;;4991930;28;20104;-69
2022/04/26 15:18:13;;;;;;;7.00;2.58;;;12.90;66.30;;;;;;5003397;28;20440;-69
2022/04/26 15:20:48;;;;;;;4.60;2.50;;;13.10;65.70;;;;;;5010817;28;20045;-69
2022/04/26 15:23:15;;;;;;;10.00;2.90;;;13.30;65.00;;;;;;5012002;28;20042;-69
2022/04/26 15:25:41;;;;;;;7.00;2.85;;;12.80;63.50;;;;;;5010854;28;20384;-69
2022/04/26 15:28:08;;;;;;;7.40;2.83;;;13.00;64.70;;;;;;5010792;28;20065;-69
2022/04/26 15:30:41;;;;;;;5.97;2.80;;;13.10;66.00;;;;;;5010001;28;20068;-69
2022/04/26 15:33:07;;;;;;;9.35;3.15;;;12.60;65.80;;;;;;5010178;28;20416;-69
2022/04/26 15:35:33;;;;;;;5.65;3.08;;;12.60;67.40;;;;;;5009230;28;20053;-68
2022/04/26 15:37:58;;;;;;;6.18;2.75;;;12.80;68.90;;;;;;5011308;28;20048;-69
2022/04/26 15:40:24;;;;;;;4.38;2.60;;;12.70;68.10;;;;;;5010401;28;20467;-68
2022/04/26 15:42:49;;;;;;;6.43;2.70;;;12.50;68.80;;;;;;5009001;28;20439;-69
2022/04/26 15:45:15;;;;;;;11.27;3.25;;;12.20;69.30;;;;;;5006029;28;20411;-70
2022/04/26 15:47:40;;;;;;;5.53;3.00;;;11.90;70.10;;;;;;5003775;28;20026;-69
2022/04/26 15:50:06;;;;;;;5.20;2.65;;;11.80;70.10;;;;;;5004320;28;20120;-69
2022/04/26 15:52:33;;;;;;;7.80;2.85;;;11.70;70.60;;;;;;5006305;28;20120;-68
2022/04/26 15:54:59;;;;;;;4.45;2.60;;;11.60;71.60;;;;;;5004892;28;20397;-69
2022/04/26 15:57:25;;;;;;;6.25;2.83;;;11.70;73.80;;;;;;5002011;28;20041;-68
2022/04/26 15:59:50;;;;;;;9.32;3.00;;;11.40;73.70;;;;;;4995420;28;20145;-68
2022/04/26 16:02:16;;;;;;;6.72;3.00;;;11.30;75.80;;;;;;4995316;28;20118;-68
2022/04/26 16:04:42;;;;;;;6.32;2.35;;;11.30;77.30;;;;;;5000559;28;20043;-71
2022/04/26 16:07:08;;;;;;;5.88;3.17;;;11.40;76.90;;;;;;4998317;28;20037;-68
2022/04/26 16:20:32;;;;;;;9.85;3.17;;;11.50;74.50;;;;;;5001300;28;20046;-68
2022/04/26 16:22:59;;;;;;;5.40;2.30;;;11.60;73.90;;;;;;5014188;28;20065;-68
2022/04/26 16:25:25;;;;;;;7.30;2.83;;;11.80;73.30;;;;;;5013523;28;20064;-67
2022/04/26 16:27:51;;;;;;;7.95;2.90;;;11.90;72.60;;;;;;5014555;28;20157;-68
2022/04/26 16:30:17;;;;;;;4.53;2.15;;;11.90;71.00;;;;;;5014196;28;20120;-68
2022/04/26 16:32:43;;;;;;;6.35;2.60;;;12.10;70.70;;;;;;5013482;28;20409;-67
2022/04/26 16:35:10;;;;;;;6.10;2.80;;;12.30;69.90;;;;;;5014258;28;20042;-67
2022/04/26 16:37:36;;;;;;;2.92;2.35;;;12.40;68.40;;;;;;5012994;28;20076;-68
2022/04/26 16:40:02;;;;;;;5.15;2.50;;;12.10;66.00;;;;;;5013561;28;20042;-67
2022/04/26 16:42:29;;;;;;;5.85;2.78;;;11.90;65.30;;;;;;5013354;28;20044;-69
2022/04/26 16:44:55;;;;;;;7.40;3.10;;;11.80;65.80;;;;;;5012751;28;20072;-68
2022/04/26 16:47:20;;;;;;;4.55;2.65;;;11.80;65.80;;;;;;5013043;28;20491;-68
2022/04/26 16:49:46;;;;;;;7.82;2.83;;;11.80;65.90;;;;;;5012767;28;20125;-69
2022/04/26 16:52:12;;;;;;;4.93;2.70;;;11.70;66.40;;;;;;5012209;28;20033;-68
2022/04/26 16:54:38;;;;;;;6.05;2.85;;;11.90;67.00;;;;;;5013812;28;20128;-69
2022/04/26 16:57:04;;;;;;;6.45;3.00;;;11.70;66.90;;;;;;5013406;28;20451;-69
2022/04/26 16:59:30;;;;;;;6.28;2.42;;;11.70;67.10;;;;;;5010722;28;20549;-69
2022/04/26 17:01:56;;;;;;;5.82;2.95;;;11.80;67.20;;;;;;5011669;28;20125;-69
2022/04/26 17:04:22;;;;;;;7.97;2.70;;;11.80;67.90;;;;;;5011539;28;20420;-69
2022/04/26 17:06:49;;;;;;;8.15;2.85;;;11.70;66.70;;;;;;5012344;28;20518;-69